Time;durP1;ratioP1;P1;durP2;ratioP2;P2;SDS_P1;SDS_P2;PMS_P1;PMS_P2;Temp;Humidity;BMP_temperature;BMP_pressure;BME280_temperature;BME280_humidity;BME280_pressure;Samples;Min_cycle;Max_cycle;Signal;HPM_P1;HPM_P2
2022/10/27 00:00:07;;;;;;;0.60;0.60;;;9.40;99.90;;;;;;4971245;28;20610;-76
2022/10/27 00:02:33;;;;;;;0.60;0.60;;;9.30;99.90;;;;;;4971443;28;20651;-77
2022/10/27 00:04:58;;;;;;;0.50;0.50;;;9.30;99.90;;;;;;4971730;28;20192;-77
2022/10/27 00:07:24;;;;;;;0.70;0.70;;;9.30;99.90;;;;;;4971410;28;20634;-76
2022/10/27 00:09:49;;;;;;;0.60;0.60;;;9.30;99.90;;;;;;4970863;28;20193;-77
2022/10/27 00:12:15;;;;;;;0.70;0.70;;;9.20;99.90;;;;;;4970199;28;20599;-76
2022/10/27 00:14:41;;;;;;;0.50;0.50;;;9.20;99.90;;;;;;4971464;28;20190;-76
2022/10/27 00:17:07;;;;;;;0.50;0.50;;;9.20;99.90;;;;;;4971306;28;20709;-76
2022/10/27 00:19:32;;;;;;;0.70;0.70;;;9.10;99.90;;;;;;4970514;28;20788;-76
2022/10/27 00:21:58;;;;;;;0.60;0.60;;;9.20;99.90;;;;;;4972637;28;20208;-76
2022/10/27 00:24:23;;;;;;;0.50;0.50;;;9.20;99.90;;;;;;4971146;28;20649;-76
2022/10/27 00:26:49;;;;;;;0.73;0.73;;;9.10;99.90;;;;;;4980511;28;20232;-77
2022/10/27 00:29:14;;;;;;;0.60;0.60;;;9.00;99.90;;;;;;4983148;28;20181;-77
2022/10/27 00:31:40;;;;;;;0.63;0.63;;;9.00;99.90;;;;;;4981440;28;20585;-77
2022/10/27 00:34:06;;;;;;;0.60;0.60;;;9.00;99.90;;;;;;4984914;28;20713;-77
2022/10/27 00:36:31;;;;;;;0.70;0.70;;;9.00;99.90;;;;;;4985457;28;20908;-77
2022/10/27 00:38:58;;;;;;;0.50;0.50;;;8.90;99.90;;;;;;4984736;28;20537;-77
2022/10/27 00:41:36;;;;;;;0.70;0.70;;;8.90;99.90;;;;;;4980858;28;20332;-77
2022/10/27 00:44:27;;;;;;;0.60;0.60;;;8.90;99.90;;;;;;4980229;28;20189;-78
2022/10/27 00:46:53;;;;;;;0.70;0.70;;;8.90;99.90;;;;;;4986717;28;20246;-77
2022/10/27 00:49:25;;;;;;;0.70;0.70;;;8.80;99.90;;;;;;4984092;28;20173;-77
2022/10/27 00:51:55;;;;;;;0.60;0.60;;;8.80;99.90;;;;;;4984863;28;20221;-77
2022/10/27 00:54:22;;;;;;;0.70;0.70;;;8.70;99.90;;;;;;4986068;28;20276;-77
2022/10/27 00:56:50;;;;;;;0.77;0.77;;;8.60;99.90;;;;;;4985165;28;20209;-78
2022/10/27 00:59:17;;;;;;;0.70;0.70;;;8.60;99.90;;;;;;4983949;28;20184;-77
2022/10/27 01:01:43;;;;;;;0.60;0.60;;;8.60;99.90;;;;;;4972298;28;20229;-77
2022/10/27 01:04:10;;;;;;;0.60;0.60;;;8.70;99.90;;;;;;4986928;28;20177;-77
2022/10/27 01:06:36;;;;;;;0.63;0.63;;;8.70;99.90;;;;;;4980297;28;20197;-78
2022/10/27 01:09:04;;;;;;;0.70;0.70;;;8.70;99.90;;;;;;4972292;28;20190;-77
2022/10/27 01:11:29;;;;;;;0.73;0.73;;;8.70;99.90;;;;;;4970195;28;20198;-77
2022/10/27 01:13:55;;;;;;;0.70;0.70;;;8.70;99.90;;;;;;4979089;28;20185;-77
2022/10/27 01:16:20;;;;;;;0.80;0.80;;;8.60;99.90;;;;;;4983217;28;20206;-78
2022/10/27 01:19:17;;;;;;;0.80;0.80;;;8.50;99.90;;;;;;4976455;28;20641;-78
2022/10/27 01:22:12;;;;;;;0.67;0.67;;;8.50;99.90;;;;;;4968764;28;20588;-77
2022/10/27 01:24:44;;;;;;;0.70;0.70;;;8.60;99.90;;;;;;4970388;28;20243;-77
2022/10/27 01:27:40;;;;;;;0.80;0.80;;;8.60;99.90;;;;;;4973433;28;20809;-76
2022/10/27 01:30:20;;;;;;;0.70;0.70;;;8.60;99.90;;;;;;4973466;28;20184;-77
2022/10/27 01:33:17;;;;;;;0.80;0.80;;;8.50;99.90;;;;;;4974072;28;20186;-77
2022/10/27 01:35:55;;;;;;;0.73;0.73;;;8.50;99.90;;;;;;4961082;28;20278;-77
2022/10/27 01:38:30;;;;;;;0.80;0.80;;;8.40;99.90;;;;;;4973294;28;20649;-76
2022/10/27 01:41:14;;;;;;;0.80;0.80;;;8.40;99.90;;;;;;4969785;28;20206;-76
2022/10/27 01:43:39;;;;;;;0.70;0.70;;;8.40;99.90;;;;;;4970054;28;20174;-78
2022/10/27 01:46:08;;;;;;;0.80;0.80;;;8.30;99.90;;;;;;4974221;28;20215;-78
2022/10/27 01:48:35;;;;;;;0.67;0.67;;;8.20;99.90;;;;;;4975604;28;20255;-76
2022/10/27 01:51:01;;;;;;;0.70;0.70;;;8.30;99.90;;;;;;4971912;28;20208;-77
2022/10/27 01:53:29;;;;;;;0.60;0.60;;;8.30;99.90;;;;;;4970676;28;20273;-76
2022/10/27 01:56:29;;;;;;;0.63;0.63;;;8.40;99.90;;;;;;4970474;28;20734;-77
2022/10/27 01:59:36;;;;;;;0.60;0.60;;;8.40;99.90;;;;;;4971028;28;20631;-76
2022/10/27 02:02:19;;;;;;;0.70;0.70;;;8.40;99.90;;;;;;4970620;28;20213;-77
2022/10/27 02:05:02;;;;;;;0.80;0.80;;;8.30;99.90;;;;;;4971190;28;20192;-77
2022/10/27 02:07:56;;;;;;;0.70;0.70;;;8.20;99.90;;;;;;4969797;28;20181;-77
2022/10/27 02:10:29;;;;;;;0.80;0.80;;;8.30;99.90;;;;;;4969834;28;20318;-77
2022/10/27 02:12:56;;;;;;;0.80;0.80;;;8.20;99.90;;;;;;4970340;28;20232;-77
2022/10/27 02:15:42;;;;;;;0.73;0.73;;;8.20;99.90;;;;;;4969996;28;20205;-78
2022/10/27 02:18:14;;;;;;;0.70;0.70;;;8.20;99.90;;;;;;4972260;28;20200;-77
2022/10/27 02:20:44;;;;;;;0.70;0.70;;;8.10;99.90;;;;;;4970311;28;20282;-77
2022/10/27 02:23:16;;;;;;;0.60;0.60;;;8.00;99.90;;;;;;5005540;22;20227;-78
2022/10/27 02:26:02;;;;;;;0.80;0.80;;;8.00;99.90;;;;;;4978377;28;20183;-78
2022/10/27 02:28:37;;;;;;;0.70;0.70;;;7.90;99.90;;;;;;4989388;28;20181;-78
2022/10/27 02:31:03;;;;;;;0.60;0.60;;;7.70;99.90;;;;;;4985752;28;20207;-78
2022/10/27 02:33:29;;;;;;;0.70;0.70;;;7.60;99.90;;;;;;4969896;28;20567;-78
2022/10/27 02:35:56;;;;;;;0.70;0.70;;;7.70;99.90;;;;;;4983019;28;20221;-77
2022/10/27 02:38:21;;;;;;;0.60;0.60;;;7.60;99.90;;;;;;4988699;28;20185;-77
2022/10/27 02:40:47;;;;;;;0.70;0.70;;;7.60;99.90;;;;;;4972519;28;20203;-75
2022/10/27 02:43:13;;;;;;;0.70;0.70;;;7.50;99.90;;;;;;4970702;28;20212;-75
2022/10/27 02:45:38;;;;;;;0.50;0.50;;;7.50;99.90;;;;;;4971695;28;20227;-75
2022/10/27 02:48:04;;;;;;;0.50;0.50;;;7.60;99.90;;;;;;4973091;28;20182;-75
2022/10/27 02:50:29;;;;;;;0.60;0.60;;;7.60;99.90;;;;;;4988797;28;20209;-75
2022/10/27 02:52:55;;;;;;;0.63;0.63;;;7.60;99.90;;;;;;4976862;28;20272;-76
2022/10/27 02:55:20;;;;;;;0.70;0.70;;;7.60;99.90;;;;;;4972834;28;20242;-75
2022/10/27 02:57:46;;;;;;;0.67;0.67;;;7.50;99.90;;;;;;5024035;28;20178;-75
2022/10/27 03:00:13;;;;;;;0.60;0.60;;;7.60;99.90;;;;;;4981808;28;20537;-75
2022/10/27 03:02:38;;;;;;;0.70;0.70;;;7.50;99.90;;;;;;4978796;28;20188;-76
2022/10/27 03:05:04;;;;;;;0.60;0.60;;;7.50;99.90;;;;;;4972634;28;20178;-75
2022/10/27 03:07:29;;;;;;;0.60;0.60;;;7.60;99.90;;;;;;4975982;28;20189;-75
2022/10/27 03:09:55;;;;;;;0.70;0.70;;;7.50;99.90;;;;;;4991157;28;20279;-75
2022/10/27 03:12:20;;;;;;;0.60;0.60;;;7.30;99.90;;;;;;4981881;28;20654;-76
2022/10/27 03:14:46;;;;;;;0.80;0.80;;;7.30;99.90;;;;;;4985358;28;20169;-75
2022/10/27 03:17:11;;;;;;;0.70;0.70;;;7.30;99.90;;;;;;4991106;28;20246;-75
2022/10/27 03:19:37;;;;;;;0.50;0.50;;;7.10;99.90;;;;;;4971971;28;20174;-77
2022/10/27 03:22:02;;;;;;;0.60;0.60;;;7.20;99.90;;;;;;4980194;28;20769;-75
2022/10/27 03:24:28;;;;;;;0.70;0.70;;;7.20;99.90;;;;;;4991681;28;20192;-75
2022/10/27 03:26:53;;;;;;;0.57;0.57;;;7.30;99.90;;;;;;4975137;28;20185;-75
2022/10/27 03:29:19;;;;;;;0.70;0.70;;;7.30;99.90;;;;;;4972479;28;20715;-75
2022/10/27 03:31:45;;;;;;;0.60;0.60;;;7.20;99.90;;;;;;4978287;28;20202;-74
2022/10/27 03:34:10;;;;;;;0.60;0.60;;;7.20;99.90;;;;;;4981522;28;20296;-74
2022/10/27 03:36:36;;;;;;;0.60;0.60;;;7.20;99.90;;;;;;4985704;28;20277;-75
2022/10/27 03:39:02;;;;;;;0.70;0.70;;;7.30;99.90;;;;;;4986981;28;20673;-75
2022/10/27 03:41:27;;;;;;;0.70;0.70;;;7.20;99.90;;;;;;4979033;28;20208;-74
2022/10/27 03:43:53;;;;;;;0.70;0.70;;;7.20;99.90;;;;;;4987886;28;20254;-74
2022/10/27 03:46:18;;;;;;;0.60;0.60;;;7.20;99.90;;;;;;4973133;28;20204;-75
2022/10/27 03:48:44;;;;;;;0.77;0.77;;;7.30;99.90;;;;;;4991052;28;20185;-75
2022/10/27 03:51:09;;;;;;;0.70;0.70;;;7.40;99.90;;;;;;4990882;28;20735;-74
2022/10/27 03:53:35;;;;;;;0.70;0.70;;;7.30;99.90;;;;;;4983607;28;20583;-74
2022/10/27 03:56:00;;;;;;;0.90;0.90;;;7.30;99.90;;;;;;4987411;28;20550;-74
2022/10/27 03:58:26;;;;;;;0.60;0.60;;;7.20;99.90;;;;;;4971897;28;20178;-74
2022/10/27 04:00:52;;;;;;;0.60;0.60;;;7.20;99.90;;;;;;4971438;28;20570;-74
2022/10/27 04:03:17;;;;;;;0.73;0.73;;;7.30;99.90;;;;;;4972877;28;20197;-76
2022/10/27 04:05:43;;;;;;;0.60;0.60;;;7.20;99.90;;;;;;4972040;28;20239;-77
2022/10/27 04:08:08;;;;;;;0.80;0.80;;;7.20;99.90;;;;;;4972019;28;20548;-74
2022/10/27 04:10:34;;;;;;;0.70;0.70;;;7.30;99.90;;;;;;4958276;28;20195;-74
2022/10/27 04:12:59;;;;;;;0.70;0.70;;;7.40;99.90;;;;;;4983834;28;20178;-74
2022/10/27 04:15:26;;;;;;;0.70;0.70;;;7.30;99.90;;;;;;4971699;28;20600;-73
2022/10/27 04:17:54;;;;;;;0.70;0.70;;;7.30;99.90;;;;;;4984271;28;20219;-74
2022/10/27 04:20:19;;;;;;;0.70;0.70;;;7.30;99.90;;;;;;4990337;28;20543;-73
2022/10/27 04:22:45;;;;;;;0.70;0.70;;;7.40;99.90;;;;;;4984645;28;20607;-74
2022/10/27 04:25:10;;;;;;;0.90;0.90;;;7.40;99.90;;;;;;4971785;28;20177;-74
2022/10/27 04:27:36;;;;;;;0.73;0.73;;;7.40;99.90;;;;;;4971638;28;20277;-76
2022/10/27 04:30:02;;;;;;;0.73;0.73;;;7.40;99.90;;;;;;4984502;28;20217;-77
2022/10/27 04:32:28;;;;;;;0.80;0.80;;;7.40;99.90;;;;;;4986957;28;20186;-76
2022/10/27 04:34:53;;;;;;;0.70;0.70;;;7.40;99.90;;;;;;4971627;28;20189;-76
2022/10/27 04:37:19;;;;;;;0.87;0.87;;;7.40;99.90;;;;;;4971553;28;20263;-74
2022/10/27 04:39:44;;;;;;;0.80;0.80;;;7.50;99.90;;;;;;4970987;28;20178;-73
2022/10/27 04:42:10;;;;;;;0.90;0.90;;;7.50;99.90;;;;;;4972432;28;20209;-74
2022/10/27 04:44:36;;;;;;;1.00;1.00;;;7.60;99.90;;;;;;4972957;28;20247;-74
2022/10/27 04:47:01;;;;;;;0.97;0.97;;;7.60;99.90;;;;;;4978195;28;20264;-74
2022/10/27 04:49:27;;;;;;;0.77;0.77;;;7.60;99.90;;;;;;4990130;28;20173;-76
2022/10/27 04:51:52;;;;;;;1.00;1.00;;;7.50;99.90;;;;;;4987819;28;20346;-73
2022/10/27 04:54:18;;;;;;;0.80;0.80;;;7.60;99.90;;;;;;4971158;28;20537;-74
2022/10/27 04:56:43;;;;;;;0.80;0.80;;;7.60;99.90;;;;;;4979781;28;20220;-75
2022/10/27 04:59:10;;;;;;;0.80;0.80;;;7.70;99.90;;;;;;4981066;28;20186;-75
2022/10/27 05:01:36;;;;;;;0.80;0.80;;;7.70;99.90;;;;;;4970508;28;20213;-73
2022/10/27 05:04:01;;;;;;;0.90;0.90;;;7.70;99.90;;;;;;4984011;28;20174;-74
2022/10/27 05:06:27;;;;;;;0.70;0.70;;;7.70;99.90;;;;;;4989951;28;20264;-74
2022/10/27 05:08:52;;;;;;;0.87;0.87;;;7.70;99.90;;;;;;4970842;28;20220;-74
2022/10/27 05:11:18;;;;;;;0.80;0.80;;;7.60;99.90;;;;;;4969931;28;20252;-74
2022/10/27 05:13:48;;;;;;;0.70;0.70;;;7.50;99.90;;;;;;4970871;28;20174;-74
2022/10/27 05:16:13;;;;;;;0.90;0.90;;;7.50;99.90;;;;;;4970636;28;20210;-74
2022/10/27 05:18:39;;;;;;;0.80;0.80;;;7.60;99.90;;;;;;4970907;28;20178;-74
2022/10/27 05:21:04;;;;;;;0.83;0.83;;;7.70;99.90;;;;;;4970213;28;20206;-75
2022/10/27 05:23:30;;;;;;;0.70;0.70;;;7.70;99.90;;;;;;4970426;28;20260;-75
2022/10/27 05:25:55;;;;;;;0.90;0.90;;;7.70;99.90;;;;;;4974340;28;20228;-74
2022/10/27 05:28:22;;;;;;;0.93;0.93;;;7.50;99.90;;;;;;4987433;28;20190;-74
2022/10/27 05:30:47;;;;;;;0.70;0.70;;;7.50;99.90;;;;;;5019214;28;20204;-74
2022/10/27 05:33:13;;;;;;;0.60;0.60;;;7.50;99.90;;;;;;4973451;28;20189;-74
2022/10/27 05:35:39;;;;;;;0.90;0.90;;;7.50;99.90;;;;;;4970526;28;20213;-74
2022/10/27 05:38:06;;;;;;;0.70;0.70;;;7.50;99.90;;;;;;4968991;28;20220;-74
2022/10/27 05:40:34;;;;;;;0.70;0.70;;;7.50;99.90;;;;;;4969749;28;20202;-74
2022/10/27 05:43:02;;;;;;;0.80;0.80;;;7.40;99.90;;;;;;4970233;28;20688;-73
2022/10/27 05:45:28;;;;;;;0.70;0.70;;;7.40;99.90;;;;;;4970094;28;20235;-73
2022/10/27 05:48:02;;;;;;;0.70;0.70;;;7.30;99.90;;;;;;4970357;28;20178;-73
2022/10/27 05:50:28;;;;;;;0.70;0.70;;;7.20;99.90;;;;;;4969950;28;20215;-73
2022/10/27 05:52:54;;;;;;;0.70;0.70;;;7.20;99.90;;;;;;4970308;28;20602;-73
2022/10/27 05:55:20;;;;;;;0.70;0.70;;;7.20;99.90;;;;;;4970357;28;20188;-73
2022/10/27 05:57:53;;;;;;;0.67;0.67;;;7.30;99.90;;;;;;4970429;28;20190;-74
2022/10/27 06:00:20;;;;;;;0.50;0.50;;;7.20;99.90;;;;;;4988472;28;20620;-73
2022/10/27 06:02:45;;;;;;;0.67;0.67;;;7.10;99.90;;;;;;5070669;28;20262;-73
2022/10/27 06:05:11;;;;;;;0.70;0.70;;;7.10;99.90;;;;;;5071632;28;20261;-74
2022/10/27 06:07:36;;;;;;;0.60;0.60;;;7.20;99.90;;;;;;5071627;28;20178;-73
2022/10/27 06:10:02;;;;;;;0.60;0.60;;;7.20;99.90;;;;;;5070729;28;20261;-73
2022/10/27 06:12:28;;;;;;;0.70;0.70;;;7.20;99.90;;;;;;5071314;28;20659;-73
2022/10/27 06:14:53;;;;;;;0.60;0.60;;;7.20;99.90;;;;;;5071316;28;20183;-73
2022/10/27 06:17:19;;;;;;;0.70;0.70;;;7.20;99.90;;;;;;5071297;28;20256;-74
2022/10/27 06:19:44;;;;;;;0.70;0.70;;;7.20;99.90;;;;;;5071317;28;20265;-74
2022/10/27 06:22:10;;;;;;;0.70;0.70;;;7.20;99.90;;;;;;5075252;28;20293;-73
2022/10/27 06:24:35;;;;;;;0.70;0.70;;;7.20;99.90;;;;;;5075155;28;20170;-73
2022/10/27 06:27:01;;;;;;;0.70;0.70;;;7.20;99.90;;;;;;5061011;28;22296;-74
2022/10/27 06:29:26;;;;;;;0.70;0.70;;;7.20;99.90;;;;;;4973062;28;20185;-73
2022/10/27 06:31:52;;;;;;;0.70;0.70;;;7.20;99.90;;;;;;4975112;28;20209;-73
2022/10/27 06:34:17;;;;;;;0.87;0.87;;;7.30;99.90;;;;;;4973033;28;20170;-74
2022/10/27 06:36:43;;;;;;;0.60;0.60;;;7.40;99.90;;;;;;4972564;28;20209;-73
2022/10/27 06:39:08;;;;;;;0.60;0.60;;;7.50;99.90;;;;;;4971789;28;20314;-74
2022/10/27 06:41:34;;;;;;;0.90;0.90;;;7.50;99.90;;;;;;4972354;28;20581;-73
2022/10/27 06:44:00;;;;;;;0.70;0.70;;;7.50;99.90;;;;;;4973058;28;20182;-73
2022/10/27 06:46:25;;;;;;;0.90;0.90;;;7.60;99.90;;;;;;4972925;28;20185;-73
2022/10/27 06:48:51;;;;;;;0.90;0.90;;;7.60;99.90;;;;;;4972800;28;20674;-73
2022/10/27 06:51:16;;;;;;;0.90;0.90;;;7.50;99.90;;;;;;4972283;28;20636;-73
2022/10/27 06:53:42;;;;;;;1.00;1.00;;;7.60;99.90;;;;;;4972772;28;20647;-73
2022/10/27 06:56:07;;;;;;;0.80;0.80;;;7.80;99.90;;;;;;4972281;28;20205;-72
2022/10/27 06:58:38;;;;;;;0.70;0.70;;;8.00;99.90;;;;;;4972313;28;20177;-73
2022/10/27 07:01:03;;;;;;;0.80;0.80;;;8.10;99.90;;;;;;4969317;28;20344;-73
2022/10/27 07:03:33;;;;;;;0.70;0.70;;;8.30;99.90;;;;;;4972329;28;20265;-73
2022/10/27 07:05:59;;;;;;;0.70;0.70;;;8.50;99.90;;;;;;4972521;28;20256;-73
2022/10/27 07:08:24;;;;;;;0.80;0.80;;;8.60;99.90;;;;;;4972499;28;20265;-73
2022/10/27 07:10:51;;;;;;;0.70;0.70;;;8.60;99.90;;;;;;4971826;28;20193;-73
2022/10/27 07:13:16;;;;;;;0.80;0.80;;;8.90;99.90;;;;;;4972544;28;20268;-73
2022/10/27 07:15:42;;;;;;;0.60;0.60;;;9.40;99.90;;;;;;4972288;28;20292;-73
2022/10/27 07:18:09;;;;;;;0.50;0.50;;;10.10;99.90;;;;;;4972451;28;20646;-74
2022/10/27 07:20:37;;;;;;;0.50;0.50;;;10.50;99.90;;;;;;4971131;28;20206;-73
2022/10/27 07:23:03;;;;;;;0.40;0.40;;;10.90;99.90;;;;;;4970408;28;20198;-73
2022/10/27 07:25:31;;;;;;;0.50;0.50;;;11.20;34.90;;;;;;4971790;28;20182;-73
2022/10/27 07:27:57;;;;;;;0.40;0.40;;;11.40;1.00;;;;;;4971654;28;20670;-74
2022/10/27 07:30:25;;;;;;;0.40;0.40;;;12.00;1.00;;;;;;4971109;28;20198;-74
2022/10/27 07:32:51;;;;;;;0.50;0.50;;;12.60;1.00;;;;;;4970521;28;20239;-73
2022/10/27 07:35:17;;;;;;;0.40;0.40;;;13.20;1.00;;;;;;4954195;28;20628;-74
2022/10/27 07:37:44;;;;;;;0.30;0.30;;;13.50;1.00;;;;;;4968944;28;20214;-74
2022/10/27 07:40:11;;;;;;;0.30;0.30;;;13.50;99.90;;;;;;4971159;28;20323;-74
2022/10/27 07:42:52;;;;;;;0.30;0.30;;;13.70;1.00;;;;;;4969181;28;20621;-74
2022/10/27 07:45:20;;;;;;;0.30;0.30;;;14.20;1.00;;;;;;4968806;28;20182;-75
2022/10/27 07:47:48;;;;;;;0.37;0.37;;;13.70;1.00;;;;;;4971099;28;20178;-76
2022/10/27 07:50:14;;;;;;;0.30;0.30;;;13.00;1.00;;;;;;4989209;28;20754;-76
2022/10/27 07:52:44;;;;;;;0.37;0.37;;;13.00;1.00;;;;;;5073630;28;20602;-75
2022/10/27 07:55:11;;;;;;;0.40;0.40;;;12.70;1.00;;;;;;5073718;28;20198;-75
2022/10/27 07:57:37;;;;;;;0.30;0.30;;;12.90;1.00;;;;;;5073398;28;20582;-76
2022/10/27 08:00:05;;;;;;;0.30;0.30;;;13.60;1.00;;;;;;5073234;28;20253;-75
2022/10/27 08:02:30;;;;;;;0.30;0.30;;;13.80;1.00;;;;;;5073351;28;20181;-75
2022/10/27 08:04:56;;;;;;;0.30;0.30;;;13.20;1.00;;;;;;5073567;28;20639;-76
2022/10/27 08:07:22;;;;;;;0.33;0.33;;;13.80;1.00;;;;;;5073547;28;20167;-74
2022/10/27 08:09:48;;;;;;;0.30;0.30;;;14.20;99.90;;;;;;5072846;28;20182;-75
2022/10/27 08:12:14;;;;;;;0.30;0.30;;;14.50;1.00;;;;;;5073161;28;20218;-76
2022/10/27 08:14:39;;;;;;;0.37;0.37;;;15.70;1.00;;;;;;5073361;28;20236;-75
2022/10/27 08:17:05;;;;;;;0.50;0.50;;;16.00;1.00;;;;;;5073175;28;20269;-74
2022/10/27 08:19:30;;;;;;;0.30;0.30;;;16.40;70.40;;;;;;5072497;28;20610;-74
2022/10/27 08:21:56;;;;;;;0.30;0.30;;;16.40;1.00;;;;;;5073558;28;20274;-76
2022/10/27 08:24:21;;;;;;;0.50;0.50;;;17.20;1.00;;;;;;5035955;28;20174;-77
2022/10/27 08:26:47;;;;;;;0.40;0.40;;;17.40;1.00;;;;;;4971659;28;20215;-75
2022/10/27 08:29:12;;;;;;;0.50;0.50;;;17.10;1.00;;;;;;4971256;28;20223;-76
2022/10/27 08:31:38;;;;;;;0.50;0.50;;;17.60;1.00;;;;;;4971189;28;20193;-76
2022/10/27 08:34:03;;;;;;;0.57;0.57;;;18.00;99.90;;;;;;4971861;28;20186;-76
2022/10/27 08:36:31;;;;;;;0.70;0.70;;;18.10;99.90;;;;;;4972272;28;20718;-76
2022/10/27 08:38:56;;;;;;;0.60;0.60;;;18.40;99.90;;;;;;4971301;28;20192;-76
2022/10/27 08:41:49;;;;;;;0.60;0.60;;;18.30;99.90;;;;;;4970705;28;20569;-76
2022/10/27 08:44:29;;;;;;;0.70;0.70;;;18.30;99.90;;;;;;4971261;28;20178;-77
2022/10/27 08:47:09;;;;;;;0.70;0.70;;;18.60;99.90;;;;;;5017883;28;20323;-76
2022/10/27 08:49:44;;;;;;;0.60;0.60;;;18.40;99.90;;;;;;5073040;28;20208;-76
2022/10/27 08:52:38;;;;;;;0.60;0.60;;;17.60;1.00;;;;;;5073039;28;20193;-76
2022/10/27 08:55:12;;;;;;;0.50;0.50;;;18.80;1.00;;;;;;5072436;28;20184;-76
2022/10/27 08:57:44;;;;;;;0.50;0.50;;;19.60;99.90;;;;;;5037126;28;20238;-76
2022/10/27 09:00:14;;;;;;;0.53;0.53;;;19.70;99.90;;;;;;4971061;28;20201;-77
2022/10/27 09:03:16;;;;;;;0.70;0.70;;;20.20;94.00;;;;;;4971223;28;20205;-76
2022/10/27 09:06:11;;;;;;;0.30;0.30;;;20.20;99.90;;;;;;4972009;28;20668;-75
2022/10/27 09:08:49;;;;;;;0.57;0.57;;;20.10;90.00;;;;;;4970931;28;20178;-75
2022/10/27 09:11:18;;;;;;;0.60;0.60;;;20.50;98.80;;;;;;4970758;28;20666;-76
2022/10/27 09:14:06;;;;;;;0.30;0.30;;;20.70;19.80;;;;;;4970815;28;20688;-75
2022/10/27 09:16:47;;;;;;;0.40;0.40;;;20.80;1.00;;;;;;4973874;28;20225;-73
2022/10/27 09:19:22;;;;;;;0.50;0.50;;;20.80;20.50;;;;;;4970627;28;20260;-73
2022/10/27 09:21:50;;;;;;;0.40;0.40;;;20.50;22.20;;;;;;4970388;28;20220;-74
2022/10/27 09:24:20;;;;;;;0.50;0.50;;;21.10;1.00;;;;;;4970632;28;20182;-75
2022/10/27 09:26:46;;;;;;;0.50;0.50;;;21.50;1.00;;;;;;4970593;28;20186;-76
2022/10/27 09:29:19;;;;;;;0.20;0.20;;;21.30;1.00;;;;;;4970490;28;20178;-75
2022/10/27 09:31:52;;;;;;;0.40;0.40;;;21.70;1.00;;;;;;4969450;28;20256;-73
2022/10/27 09:34:32;;;;;;;0.20;0.20;;;22.10;1.00;;;;;;4970189;28;20185;-74
2022/10/27 09:36:58;;;;;;;0.40;0.40;;;22.10;1.00;;;;;;4970156;28;20720;-74
2022/10/27 09:39:23;;;;;;;0.30;0.30;;;22.00;1.00;;;;;;4970235;28;20210;-73
2022/10/27 09:41:50;;;;;;;0.20;0.20;;;22.30;1.00;;;;;;4970412;28;20190;-78
2022/10/27 09:44:21;;;;;;;0.30;0.30;;;22.40;1.00;;;;;;4971112;28;20257;-75
2022/10/27 09:46:52;;;;;;;0.40;0.40;;;22.90;1.00;;;;;;4970482;28;20260;-77
2022/10/27 09:49:21;;;;;;;0.30;0.30;;;22.60;1.00;;;;;;4970622;28;20535;-76
2022/10/27 09:51:55;;;;;;;0.10;0.10;;;23.30;1.00;;;;;;4969936;28;21106;-76
2022/10/27 09:54:37;;;;;;;0.40;0.40;;;23.80;1.00;;;;;;4968559;28;20219;-73
2022/10/27 09:57:12;;;;;;;0.10;0.10;;;24.00;1.00;;;;;;4970204;28;20298;-74
2022/10/27 09:59:39;;;;;;;0.40;0.40;;;23.60;1.00;;;;;;4969481;28;20177;-76
2022/10/27 10:02:22;;;;;;;0.20;0.20;;;24.30;1.00;;;;;;4970885;28;20198;-77
2022/10/27 10:04:48;;;;;;;0.38;0.38;;;24.30;1.00;;;;;;4971011;28;20258;-77
2022/10/27 10:07:37;;;;;;;0.30;0.30;;;24.40;1.00;;;;;;4970721;28;20889;-77
2022/10/27 10:10:16;;;;;;;0.40;0.40;;;24.10;1.00;;;;;;4969514;28;20730;-77
2022/10/27 10:12:42;;;;;;;0.25;0.25;;;25.00;1.00;;;;;;4970307;28;20182;-77
2022/10/27 10:15:10;;;;;;;0.30;0.30;;;25.10;1.00;;;;;;4970263;28;20178;-76
2022/10/27 10:17:39;;;;;;;0.30;0.30;;;25.20;1.00;;;;;;4970235;28;20700;-77
2022/10/27 10:20:06;;;;;;;0.33;0.33;;;25.40;1.00;;;;;;4969651;28;20178;-77
2022/10/27 10:22:34;;;;;;;0.17;0.17;;;25.50;1.00;;;;;;4970134;28;20674;-78
2022/10/27 10:25:28;;;;;;;0.10;0.10;;;25.60;1.00;;;;;;4970576;28;20178;-76
2022/10/27 10:28:03;;;;;;;0.20;0.20;;;25.90;1.00;;;;;;4970263;28;20205;-77
2022/10/27 10:30:36;;;;;;;0.30;0.30;;;26.10;1.00;;;;;;4970905;28;20194;-79
2022/10/27 10:33:04;;;;;;;0.30;0.30;;;25.70;1.00;;;;;;4971470;28;20182;-79
2022/10/27 10:35:50;;;;;;;0.22;0.22;;;25.90;1.00;;;;;;4972446;28;20243;-77
2022/10/27 10:38:28;;;;;;;0.10;0.10;;;25.80;1.00;;;;;;4971978;28;20185;-78
2022/10/27 10:41:17;;;;;;;0.20;0.20;;;25.90;1.00;;;;;;4971877;28;20297;-78
2022/10/27 10:43:43;;;;;;;0.10;0.10;;;26.50;1.00;;;;;;4971305;28;20178;-78
2022/10/27 10:46:24;;;;;;;0.22;0.22;;;26.80;1.00;;;;;;4973145;28;20672;-76
2022/10/27 10:48:56;;;;;;;0.20;0.20;;;27.20;1.00;;;;;;4972001;28;20182;-77
2022/10/27 10:51:30;;;;;;;0.15;0.15;;;27.20;1.00;;;;;;4969877;28;20283;-79
2022/10/27 10:54:05;;;;;;;0.10;0.10;;;26.90;1.00;;;;;;4971055;28;20204;-78
2022/10/27 10:56:33;;;;;;;0.20;0.20;;;26.80;1.00;;;;;;4971542;28;20592;-79
2022/10/27 10:59:20;;;;;;;0.28;0.28;;;27.40;1.00;;;;;;4972344;28;20174;-80
2022/10/27 11:01:50;;;;;;;0.30;0.30;;;27.30;1.00;;;;;;4972392;28;20702;-80
2022/10/27 11:04:29;;;;;;;0.30;0.30;;;27.40;1.00;;;;;;4972212;28;20662;-78
2022/10/27 11:07:14;;;;;;;0.20;0.20;;;27.40;1.00;;;;;;4976937;28;20178;-83
2022/10/27 11:09:50;;;;;;;0.20;0.20;;;27.50;1.00;;;;;;4975687;28;20185;-75
2022/10/27 11:12:25;;;;;;;0.35;0.35;;;28.10;1.00;;;;;;4974661;28;20205;-79
2022/10/27 11:14:52;;;;;;;0.10;0.10;;;28.40;1.00;;;;;;4976278;28;20174;-79
2022/10/27 11:17:19;;;;;;;0.22;0.22;;;28.10;1.00;;;;;;4975751;28;20217;-78
2022/10/27 11:19:45;;;;;;;0.30;0.30;;;28.00;1.00;;;;;;4976039;28;20715;-78
2022/10/27 11:22:16;;;;;;;0.20;0.20;;;27.70;1.00;;;;;;4976410;28;20214;-79
2022/10/27 11:25:13;;;;;;;0.10;0.10;;;27.60;1.00;;;;;;4975291;28;20258;-80
2022/10/27 11:27:56;;;;;;;0.20;0.20;;;27.70;1.00;;;;;;4976483;28;20209;-78
2022/10/27 11:30:26;;;;;;;0.30;0.30;;;28.10;1.00;;;;;;4975832;28;20205;-79
2022/10/27 11:33:23;;;;;;;0.40;0.40;;;28.50;1.00;;;;;;4975842;28;20201;-80
2022/10/27 11:36:07;;;;;;;0.30;0.30;;;28.20;1.00;;;;;;4975365;28;20186;-79
2022/10/27 11:39:06;;;;;;;0.40;0.40;;;28.40;1.00;;;;;;4975254;28;20252;-81
2022/10/27 11:41:48;;;;;;;0.25;0.25;;;28.20;1.00;;;;;;4976120;28;20209;-78
2022/10/27 11:44:46;;;;;;;0.20;0.20;;;28.00;1.00;;;;;;4974553;28;20224;-79
2022/10/27 11:47:25;;;;;;;0.28;0.28;;;27.50;1.00;;;;;;4975077;28;20729;-77
2022/10/27 11:49:58;;;;;;;0.20;0.20;;;27.60;1.00;;;;;;4975086;28;20599;-78
2022/10/27 11:52:43;;;;;;;0.40;0.40;;;28.00;1.00;;;;;;4976091;28;20178;-79
2022/10/27 11:55:13;;;;;;;0.60;0.60;;;28.50;1.00;;;;;;4975594;28;20230;-77
2022/10/27 11:57:49;;;;;;;0.50;0.50;;;27.10;1.00;;;;;;4977565;28;20220;-77
2022/10/27 12:00:24;;;;;;;0.40;0.40;;;27.90;1.00;;;;;;4976562;28;20221;-77
2022/10/27 12:03:17;;;;;;;0.70;0.70;;;27.70;1.00;;;;;;4974007;28;20186;-78
2022/10/27 12:05:55;;;;;;;0.40;0.40;;;28.40;1.00;;;;;;4973208;28;20277;-77
2022/10/27 12:08:45;;;;;;;0.45;0.45;;;28.70;1.00;;;;;;4972977;28;20178;-78
2022/10/27 12:11:33;;;;;;;0.40;0.40;;;29.40;1.00;;;;;;4970815;28;20201;-78
2022/10/27 12:14:10;;;;;;;0.40;0.40;;;28.80;1.00;;;;;;4973518;28;20177;-78
2022/10/27 12:16:52;;;;;;;0.50;0.50;;;29.10;1.00;;;;;;4973127;28;20355;-77
2022/10/27 12:19:27;;;;;;;0.40;0.40;;;28.70;1.00;;;;;;4971870;28;20202;-77
2022/10/27 12:22:16;;;;;;;0.40;0.40;;;29.20;1.00;;;;;;4972958;28;20202;-77
2022/10/27 12:25:20;;;;;;;0.50;0.50;;;28.90;1.00;;;;;;4975572;28;20182;-78
2022/10/27 12:27:53;;;;;;;0.30;0.30;;;29.40;1.00;;;;;;4972652;28;20241;-76
2022/10/27 12:30:20;;;;;;;0.55;0.55;;;29.70;1.00;;;;;;4972660;28;20194;-77
2022/10/27 12:33:03;;;;;;;0.57;0.57;;;29.30;1.00;;;;;;4972985;28;20182;-77
2022/10/27 12:35:43;;;;;;;0.43;0.43;;;29.70;1.00;;;;;;4973883;28;20190;-77
2022/10/27 12:38:27;;;;;;;0.60;0.60;;;29.80;1.00;;;;;;4971916;28;20189;-76
2022/10/27 12:41:13;;;;;;;0.40;0.40;;;30.00;1.00;;;;;;4971496;28;20229;-76
2022/10/27 12:43:54;;;;;;;0.60;0.60;;;30.20;1.00;;;;;;4971203;28;20261;-75
2022/10/27 12:46:55;;;;;;;0.60;0.60;;;30.00;1.00;;;;;;4971438;28;20177;-77
2022/10/27 12:49:53;;;;;;;0.70;0.70;;;29.90;1.00;;;;;;4971177;28;20255;-78
2022/10/27 12:52:22;;;;;;;0.40;0.40;;;29.90;1.00;;;;;;4993171;28;20186;-75
2022/10/27 12:55:19;;;;;;;0.60;0.60;;;29.20;1.00;;;;;;4971592;28;20190;-77
2022/10/27 12:58:03;;;;;;;0.50;0.50;;;29.70;1.00;;;;;;4972694;28;20221;-77
2022/10/27 13:00:51;;;;;;;0.60;0.60;;;29.40;1.00;;;;;;4971465;28;20198;-77
2022/10/27 13:03:52;;;;;;;0.67;0.67;;;29.50;1.00;;;;;;4971404;28;20188;-76
2022/10/27 13:06:51;;;;;;;0.60;0.60;;;30.10;1.00;;;;;;4979193;28;20273;-75
2022/10/27 13:09:39;;;;;;;0.60;0.60;;;29.30;1.00;;;;;;4972354;28;20621;-76
2022/10/27 13:12:29;;;;;;;0.63;0.63;;;29.90;1.00;;;;;;4971403;28;20702;-76
2022/10/27 13:15:16;;;;;;;0.70;0.70;;;29.60;1.00;;;;;;4971309;28;20189;-77
2022/10/27 13:17:55;;;;;;;0.63;0.63;;;29.60;1.00;;;;;;4970917;28;20670;-76